sensor_id;sensor_type;location;lat;lon;timestamp;pressure;altitude;pressure_sealevel;temperature;humidity
10466;BME280;5280;42.600;23.556;2023-07-29T00:02:26;93294.41;;;20.17;54.58
10466;BME280;5280;42.600;23.556;2023-07-29T00:04:56;93301.81;;;20.15;54.95
10466;BME280;5280;42.600;23.556;2023-07-29T00:07:24;93305.50;;;20.14;54.98
10466;BME280;5280;42.600;23.556;2023-07-29T00:09:52;93279.81;;;19.97;54.38
10466;BME280;5280;42.600;23.556;2023-07-29T00:12:19;93299.53;;;20.04;54.60
10466;BME280;5280;42.600;23.556;2023-07-29T00:14:46;93261.19;;;19.81;54.45
10466;BME280;5280;42.600;23.556;2023-07-29T00:17:13;93300.84;;;20.08;54.80
10466;BME280;5280;42.600;23.556;2023-07-29T00:19:40;93303.72;;;20.06;54.37
10466;BME280;5280;42.600;23.556;2023-07-29T00:22:07;93288.22;;;19.94;54.57
10466;BME280;5280;42.600;23.556;2023-07-29T00:24:39;93275.53;;;19.88;54.89
10466;BME280;5280;42.600;23.556;2023-07-29T00:27:06;93296.94;;;19.96;53.79
10466;BME280;5280;42.600;23.556;2023-07-29T00:29:33;93306.28;;;20.00;53.00
10466;BME280;5280;42.600;23.556;2023-07-29T00:32:00;93299.63;;;19.96;53.14
10466;BME280;5280;42.600;23.556;2023-07-29T00:34:27;93299.16;;;19.92;54.07
10466;BME280;5280;42.600;23.556;2023-07-29T00:36:55;93292.66;;;19.87;54.12
10466;BME280;5280;42.600;23.556;2023-07-29T00:39:22;93252.63;;;19.62;54.14
10466;BME280;5280;42.600;23.556;2023-07-29T00:41:51;93301.03;;;19.84;54.46
10466;BME280;5280;42.600;23.556;2023-07-29T00:44:18;93276.84;;;19.69;54.85
10466;BME280;5280;42.600;23.556;2023-07-29T00:46:46;93294.75;;;19.76;54.91
10466;BME280;5280;42.600;23.556;2023-07-29T00:49:13;93246.69;;;19.44;55.62
10466;BME280;5280;42.600;23.556;2023-07-29T00:51:40;93292.09;;;19.68;55.91
10466;BME280;5280;42.600;23.556;2023-07-29T00:54:08;93281.44;;;19.60;56.03
10466;BME280;5280;42.600;23.556;2023-07-29T00:56:35;93268.56;;;19.56;56.55
10466;BME280;5280;42.600;23.556;2023-07-29T00:59:04;93269.88;;;19.60;55.65
10466;BME280;5280;42.600;23.556;2023-07-29T01:01:31;93264.22;;;19.55;56.11
10466;BME280;5280;42.600;23.556;2023-07-29T01:03:59;93286.25;;;19.65;55.93
10466;BME280;5280;42.600;23.556;2023-07-29T01:06:32;93286.44;;;19.63;56.48
10466;BME280;5280;42.600;23.556;2023-07-29T01:09:02;93284.94;;;19.61;56.32
10466;BME280;5280;42.600;23.556;2023-07-29T01:11:38;93285.00;;;19.53;56.45
10466;BME280;5280;42.600;23.556;2023-07-29T01:14:14;93284.81;;;19.54;56.98
10466;BME280;5280;42.600;23.556;2023-07-29T01:16:52;93258.13;;;19.30;57.53
10466;BME280;5280;42.600;23.556;2023-07-29T01:19:34;93282.66;;;19.50;57.39
10466;BME280;5280;42.600;23.556;2023-07-29T01:22:07;93286.91;;;19.44;57.81
10466;BME280;5280;42.600;23.556;2023-07-29T01:24:36;93285.72;;;19.47;57.13
10466;BME280;5280;42.600;23.556;2023-07-29T01:27:04;93274.47;;;19.43;57.23
10466;BME280;5280;42.600;23.556;2023-07-29T01:29:31;93266.19;;;19.30;56.88
10466;BME280;5280;42.600;23.556;2023-07-29T01:32:06;93281.69;;;19.43;56.56
10466;BME280;5280;42.600;23.556;2023-07-29T01:34:43;93258.06;;;19.15;56.66
10466;BME280;5280;42.600;23.556;2023-07-29T01:37:16;93284.94;;;19.30;57.15
10466;BME280;5280;42.600;23.556;2023-07-29T01:39:49;93288.28;;;19.32;56.82
10466;BME280;5280;42.600;23.556;2023-07-29T01:42:17;93226.88;;;18.91;56.37
10466;BME280;5280;42.600;23.556;2023-07-29T01:44:45;93268.25;;;19.20;56.61
10466;BME280;5280;42.600;23.556;2023-07-29T01:47:12;93281.78;;;19.26;57.04
10466;BME280;5280;42.600;23.556;2023-07-29T01:49:39;93278.97;;;19.20;56.91
10466;BME280;5280;42.600;23.556;2023-07-29T01:52:06;93233.25;;;18.90;56.70
10466;BME280;5280;42.600;23.556;2023-07-29T01:54:34;93215.06;;;18.78;57.23
10466;BME280;5280;42.600;23.556;2023-07-29T01:57:02;93280.66;;;19.13;57.58
10466;BME280;5280;42.600;23.556;2023-07-29T01:59:29;93267.00;;;19.00;58.47
10466;BME280;5280;42.600;23.556;2023-07-29T02:01:57;93221.75;;;18.74;58.18
10466;BME280;5280;42.600;23.556;2023-07-29T02:04:25;93283.06;;;19.00;58.63
10466;BME280;5280;42.600;23.556;2023-07-29T02:06:53;93283.13;;;18.91;58.85
10466;BME280;5280;42.600;23.556;2023-07-29T02:09:21;93285.13;;;18.89;59.18
10466;BME280;5280;42.600;23.556;2023-07-29T02:11:51;93190.31;;;18.21;59.69
10466;BME280;5280;42.600;23.556;2023-07-29T02:14:19;93267.16;;;18.67;60.03
10466;BME280;5280;42.600;23.556;2023-07-29T02:16:47;93282.88;;;18.70;60.27
10466;BME280;5280;42.600;23.556;2023-07-29T02:19:14;93240.13;;;18.38;60.44
10466;BME280;5280;42.600;23.556;2023-07-29T02:21:41;93231.94;;;18.31;60.90
10466;BME280;5280;42.600;23.556;2023-07-29T02:24:09;93287.56;;;18.60;60.83
10466;BME280;5280;42.600;23.556;2023-07-29T02:26:36;93236.81;;;18.28;60.96
10466;BME280;5280;42.600;23.556;2023-07-29T02:29:03;93287.25;;;18.55;61.11
10466;BME280;5280;42.600;23.556;2023-07-29T02:31:32;93295.44;;;18.54;61.07
10466;BME280;5280;42.600;23.556;2023-07-29T02:34:02;93251.50;;;18.24;61.78
10466;BME280;5280;42.600;23.556;2023-07-29T02:36:29;93275.50;;;18.48;61.15
10466;BME280;5280;42.600;23.556;2023-07-29T02:38:57;93289.25;;;18.61;61.46
10466;BME280;5280;42.600;23.556;2023-07-29T02:41:24;93283.56;;;18.56;60.79
10466;BME280;5280;42.600;23.556;2023-07-29T02:43:54;93273.69;;;18.48;61.79
10466;BME280;5280;42.600;23.556;2023-07-29T02:46:22;93272.34;;;18.53;61.79
10466;BME280;5280;42.600;23.556;2023-07-29T02:48:50;93280.22;;;18.62;62.24
10466;BME280;5280;42.600;23.556;2023-07-29T02:51:18;93239.97;;;18.31;62.36
10466;BME280;5280;42.600;23.556;2023-07-29T02:53:45;93242.44;;;18.41;62.37
10466;BME280;5280;42.600;23.556;2023-07-29T02:56:12;93281.06;;;18.63;62.73
10466;BME280;5280;42.600;23.556;2023-07-29T02:58:39;93224.09;;;18.22;62.79
10466;BME280;5280;42.600;23.556;2023-07-29T03:01:07;93251.47;;;18.40;62.46
10466;BME280;5280;42.600;23.556;2023-07-29T03:03:34;93242.16;;;18.28;63.45
10466;BME280;5280;42.600;23.556;2023-07-29T03:06:04;93280.53;;;18.51;63.27
10466;BME280;5280;42.600;23.556;2023-07-29T03:08:32;93271.53;;;18.44;63.21
10466;BME280;5280;42.600;23.556;2023-07-29T03:11:04;93289.56;;;18.50;62.50
10466;BME280;5280;42.600;23.556;2023-07-29T03:13:31;93293.09;;;18.50;62.56
10466;BME280;5280;42.600;23.556;2023-07-29T03:16:05;93287.59;;;18.36;62.46
10466;BME280;5280;42.600;23.556;2023-07-29T03:18:32;93304.97;;;18.40;62.24
10466;BME280;5280;42.600;23.556;2023-07-29T03:21:00;93299.16;;;18.36;63.78
10466;BME280;5280;42.600;23.556;2023-07-29T03:23:29;93231.84;;;17.84;63.83
10466;BME280;5280;42.600;23.556;2023-07-29T03:25:57;93312.34;;;18.46;63.55
10466;BME280;5280;42.600;23.556;2023-07-29T03:30:53;93313.19;;;18.46;63.00
10466;BME280;5280;42.600;23.556;2023-07-29T03:33:20;93312.00;;;18.41;62.59
10466;BME280;5280;42.600;23.556;2023-07-29T03:35:47;93307.81;;;18.38;62.74
10466;BME280;5280;42.600;23.556;2023-07-29T03:38:14;93322.03;;;18.47;63.46
10466;BME280;5280;42.600;23.556;2023-07-29T03:40:42;93325.72;;;18.46;63.90
10466;BME280;5280;42.600;23.556;2023-07-29T03:43:10;93304.00;;;18.41;64.60
10466;BME280;5280;42.600;23.556;2023-07-29T03:45:37;93313.34;;;18.45;64.08
10466;BME280;5280;42.600;23.556;2023-07-29T03:48:05;93272.25;;;18.14;64.50
10466;BME280;5280;42.600;23.556;2023-07-29T03:50:34;93312.50;;;18.44;64.86
10466;BME280;5280;42.600;23.556;2023-07-29T03:53:01;93303.00;;;18.42;65.39
10466;BME280;5280;42.600;23.556;2023-07-29T03:55:28;93321.00;;;18.48;65.59
10466;BME280;5280;42.600;23.556;2023-07-29T03:57:58;93284.44;;;18.24;65.11
10466;BME280;5280;42.600;23.556;2023-07-29T04:00:25;93310.63;;;18.53;65.54
10466;BME280;5280;42.600;23.556;2023-07-29T04:02:52;93281.25;;;18.29;65.50
10466;BME280;5280;42.600;23.556;2023-07-29T04:05:19;93305.16;;;18.46;65.83
10466;BME280;5280;42.600;23.556;2023-07-29T04:07:47;93298.81;;;18.47;66.96
10466;BME280;5280;42.600;23.556;2023-07-29T04:10:14;93303.63;;;18.44;67.36
10466;BME280;5280;42.600;23.556;2023-07-29T04:12:41;93311.19;;;18.57;68.00
10466;BME280;5280;42.600;23.556;2023-07-29T04:15:12;93287.25;;;18.47;68.02
10466;BME280;5280;42.600;23.556;2023-07-29T04:17:39;93316.47;;;18.81;68.16
10466;BME280;5280;42.600;23.556;2023-07-29T04:20:06;93265.31;;;18.52;67.89
10466;BME280;5280;42.600;23.556;2023-07-29T04:22:33;93307.38;;;18.90;67.07
10466;BME280;5280;42.600;23.556;2023-07-29T04:25:00;93296.16;;;18.95;67.01
10466;BME280;5280;42.600;23.556;2023-07-29T04:27:30;93305.28;;;19.08;66.71
10466;BME280;5280;42.600;23.556;2023-07-29T04:29:57;93259.03;;;18.91;66.41
10466;BME280;5280;42.600;23.556;2023-07-29T04:32:25;93256.19;;;18.85;66.70
10466;BME280;5280;42.600;23.556;2023-07-29T04:34:52;93297.50;;;19.29;66.76
10466;BME280;5280;42.600;23.556;2023-07-29T04:37:19;93297.09;;;19.41;65.57
10466;BME280;5280;42.600;23.556;2023-07-29T04:39:49;93315.34;;;19.76;65.95
10466;BME280;5280;42.600;23.556;2023-07-29T04:42:16;93321.97;;;20.11;63.40
10466;BME280;5280;42.600;23.556;2023-07-29T04:44:43;93319.69;;;20.45;62.66
10466;BME280;5280;42.600;23.556;2023-07-29T04:47:10;93307.59;;;20.79;61.26
10466;BME280;5280;42.600;23.556;2023-07-29T04:49:41;93309.44;;;21.08;60.55
10466;BME280;5280;42.600;23.556;2023-07-29T04:52:12;93315.84;;;21.36;59.29
10466;BME280;5280;42.600;23.556;2023-07-29T04:54:40;93268.88;;;21.32;59.50
10466;BME280;5280;42.600;23.556;2023-07-29T04:57:07;93315.97;;;21.64;58.58
10466;BME280;5280;42.600;23.556;2023-07-29T04:59:34;93287.78;;;21.60;56.63
10466;BME280;5280;42.600;23.556;2023-07-29T05:02:01;93309.75;;;21.99;56.04
10466;BME280;5280;42.600;23.556;2023-07-29T05:04:28;93314.00;;;22.08;55.68
10466;BME280;5280;42.600;23.556;2023-07-29T05:06:56;93314.31;;;22.20;54.25
10466;BME280;5280;42.600;23.556;2023-07-29T05:09:23;93316.28;;;22.32;53.20
10466;BME280;5280;42.600;23.556;2023-07-29T05:11:51;93327.81;;;22.48;52.83
10466;BME280;5280;42.600;23.556;2023-07-29T05:14:18;93300.78;;;22.35;53.02
10466;BME280;5280;42.600;23.556;2023-07-29T05:16:45;93336.88;;;22.61;52.14
10466;BME280;5280;42.600;23.556;2023-07-29T05:19:13;93319.81;;;22.54;50.39
10466;BME280;5280;42.600;23.556;2023-07-29T05:21:40;93334.47;;;22.73;51.07
10466;BME280;5280;42.600;23.556;2023-07-29T05:24:09;93350.66;;;22.73;50.61
10466;BME280;5280;42.600;23.556;2023-07-29T05:26:36;93333.69;;;22.58;51.32
10466;BME280;5280;42.600;23.556;2023-07-29T05:29:02;93330.56;;;22.54;51.16
10466;BME280;5280;42.600;23.556;2023-07-29T05:31:30;93333.69;;;22.58;52.30
10466;BME280;5280;42.600;23.556;2023-07-29T05:33:58;93348.25;;;22.63;53.06
10466;BME280;5280;42.600;23.556;2023-07-29T05:36:24;93336.53;;;22.50;52.48
10466;BME280;5280;42.600;23.556;2023-07-29T05:38:52;93345.97;;;22.60;51.73
10466;BME280;5280;42.600;23.556;2023-07-29T05:41:20;93342.88;;;22.63;52.23
10466;BME280;5280;42.600;23.556;2023-07-29T05:43:47;93340.94;;;22.79;52.33
10466;BME280;5280;42.600;23.556;2023-07-29T05:46:17;93341.38;;;22.82;52.09
10466;BME280;5280;42.600;23.556;2023-07-29T05:48:44;93337.13;;;22.94;51.36
10466;BME280;5280;42.600;23.556;2023-07-29T05:51:11;93340.94;;;23.06;51.05
10466;BME280;5280;42.600;23.556;2023-07-29T05:53:38;93339.13;;;23.13;50.93
10466;BME280;5280;42.600;23.556;2023-07-29T05:56:04;93304.84;;;23.07;50.73
10466;BME280;5280;42.600;23.556;2023-07-29T05:58:33;93348.81;;;23.36;50.28
10466;BME280;5280;42.600;23.556;2023-07-29T06:00:59;93350.44;;;23.37;50.54
10466;BME280;5280;42.600;23.556;2023-07-29T06:03:27;93349.84;;;23.35;51.18
10466;BME280;5280;42.600;23.556;2023-07-29T06:05:54;93357.00;;;23.49;50.49
10466;BME280;5280;42.600;23.556;2023-07-29T06:08:21;93356.63;;;23.58;49.43
10466;BME280;5280;42.600;23.556;2023-07-29T06:10:48;93351.88;;;23.67;50.16
10466;BME280;5280;42.600;23.556;2023-07-29T06:13:15;93356.06;;;23.76;50.05
10466;BME280;5280;42.600;23.556;2023-07-29T06:15:51;93360.69;;;23.89;49.58
10466;BME280;5280;42.600;23.556;2023-07-29T06:18:18;93344.91;;;23.92;49.21
10466;BME280;5280;42.600;23.556;2023-07-29T06:20:45;93319.97;;;23.84;49.39
10466;BME280;5280;42.600;23.556;2023-07-29T06:23:14;93338.72;;;23.98;48.87
10466;BME280;5280;42.600;23.556;2023-07-29T06:25:41;93343.28;;;23.98;47.97
10466;BME280;5280;42.600;23.556;2023-07-29T06:28:08;93357.28;;;24.21;47.52
10466;BME280;5280;42.600;23.556;2023-07-29T06:30:35;93330.50;;;24.20;47.78
10466;BME280;5280;42.600;23.556;2023-07-29T06:33:04;93329.88;;;24.31;47.70
10466;BME280;5280;42.600;23.556;2023-07-29T06:35:31;93333.44;;;24.38;46.94
10466;BME280;5280;42.600;23.556;2023-07-29T06:37:57;93339.25;;;24.48;47.42
10466;BME280;5280;42.600;23.556;2023-07-29T06:40:24;93251.72;;;24.10;46.69
10466;BME280;5280;42.600;23.556;2023-07-29T06:42:51;93329.91;;;24.64;46.42
10466;BME280;5280;42.600;23.556;2023-07-29T06:45:19;93338.88;;;24.84;46.38
10466;BME280;5280;42.600;23.556;2023-07-29T06:47:47;93328.09;;;24.91;45.78
10466;BME280;5280;42.600;23.556;2023-07-29T06:50:17;93244.47;;;24.50;45.70
10466;BME280;5280;42.600;23.556;2023-07-29T06:52:45;93281.03;;;24.72;45.60
10466;BME280;5280;42.600;23.556;2023-07-29T06:55:11;93326.38;;;25.03;45.51
10466;BME280;5280;42.600;23.556;2023-07-29T06:57:39;93313.28;;;25.06;45.91
10466;BME280;5280;42.600;23.556;2023-07-29T07:00:07;93240.94;;;24.69;45.75
10466;BME280;5280;42.600;23.556;2023-07-29T07:02:39;93293.91;;;25.22;45.13
10466;BME280;5280;42.600;23.556;2023-07-29T07:05:07;93274.38;;;25.14;44.57
10466;BME280;5280;42.600;23.556;2023-07-29T07:07:36;93312.78;;;25.55;44.08
10466;BME280;5280;42.600;23.556;2023-07-29T07:10:04;93254.94;;;25.37;43.61
10466;BME280;5280;42.600;23.556;2023-07-29T07:12:32;93260.72;;;25.47;43.21
10466;BME280;5280;42.600;23.556;2023-07-29T07:15:11;93236.19;;;25.42;43.08
10466;BME280;5280;42.600;23.556;2023-07-29T07:17:38;93228.69;;;25.44;42.79
10466;BME280;5280;42.600;23.556;2023-07-29T07:20:06;93319.19;;;26.05;42.98
10466;BME280;5280;42.600;23.556;2023-07-29T07:22:35;93277.25;;;25.83;42.27
10466;BME280;5280;42.600;23.556;2023-07-29T07:25:03;93308.72;;;26.15;42.50
10466;BME280;5280;42.600;23.556;2023-07-29T07:27:31;93321.84;;;26.25;42.61
10466;BME280;5280;42.600;23.556;2023-07-29T07:29:58;93279.47;;;25.99;42.35
10466;BME280;5280;42.600;23.556;2023-07-29T07:32:26;93317.59;;;26.36;41.88
10466;BME280;5280;42.600;23.556;2023-07-29T07:34:53;93328.41;;;26.42;42.28
10466;BME280;5280;42.600;23.556;2023-07-29T07:37:23;93324.13;;;26.60;41.72
10466;BME280;5280;42.600;23.556;2023-07-29T07:39:52;93324.03;;;26.73;41.59
10466;BME280;5280;42.600;23.556;2023-07-29T07:42:19;93328.75;;;26.84;40.85
10466;BME280;5280;42.600;23.556;2023-07-29T07:44:46;93265.38;;;26.53;40.64
10466;BME280;5280;42.600;23.556;2023-07-29T07:47:13;93273.84;;;26.64;40.99
10466;BME280;5280;42.600;23.556;2023-07-29T07:49:40;93324.38;;;27.08;40.43
10466;BME280;5280;42.600;23.556;2023-07-29T07:52:07;93327.97;;;27.26;41.08
10466;BME280;5280;42.600;23.556;2023-07-29T07:54:35;93323.88;;;27.35;40.08
10466;BME280;5280;42.600;23.556;2023-07-29T07:57:05;93325.50;;;27.43;39.11
10466;BME280;5280;42.600;23.556;2023-07-29T07:59:35;93327.50;;;27.54;39.11
10466;BME280;5280;42.600;23.556;2023-07-29T08:02:02;93330.28;;;27.66;38.78
10466;BME280;5280;42.600;23.556;2023-07-29T08:04:30;93328.19;;;27.68;38.71
10466;BME280;5280;42.600;23.556;2023-07-29T08:06:57;93321.75;;;27.80;38.23
10466;BME280;5280;42.600;23.556;2023-07-29T08:09:24;93314.16;;;27.89;38.32
10466;BME280;5280;42.600;23.556;2023-07-29T08:11:54;93326.50;;;27.85;37.54
10466;BME280;5280;42.600;23.556;2023-07-29T08:14:23;93256.75;;;27.67;38.07
10466;BME280;5280;42.600;23.556;2023-07-29T08:16:50;93327.47;;;28.27;38.33
10466;BME280;5280;42.600;23.556;2023-07-29T08:19:17;93312.81;;;28.28;37.81
10466;BME280;5280;42.600;23.556;2023-07-29T08:21:44;93322.22;;;28.44;36.96
10466;BME280;5280;42.600;23.556;2023-07-29T08:24:12;93251.47;;;28.02;36.42
10466;BME280;5280;42.600;23.556;2023-07-29T08:26:39;93325.78;;;28.56;35.76
10466;BME280;5280;42.600;23.556;2023-07-29T08:29:12;93323.22;;;28.61;35.23
10466;BME280;5280;42.600;23.556;2023-07-29T08:31:41;93328.03;;;28.77;34.43
10466;BME280;5280;42.600;23.556;2023-07-29T08:34:08;93308.63;;;28.85;35.65
10466;BME280;5280;42.600;23.556;2023-07-29T08:36:35;93326.38;;;28.99;33.75
10466;BME280;5280;42.600;23.556;2023-07-29T08:39:02;93287.59;;;28.92;33.18
10466;BME280;5280;42.600;23.556;2023-07-29T08:44:18;93310.72;;;29.36;33.69
10466;BME280;5280;42.600;23.556;2023-07-29T08:46:49;93316.16;;;29.48;32.97
10466;BME280;5280;42.600;23.556;2023-07-29T08:49:16;93258.81;;;29.20;33.89
10466;BME280;5280;42.600;23.556;2023-07-29T08:51:46;93312.81;;;29.69;32.62
10466;BME280;5280;42.600;23.556;2023-07-29T08:54:14;93301.06;;;29.80;31.91
10466;BME280;5280;42.600;23.556;2023-07-29T08:56:42;93304.13;;;29.96;32.77
10466;BME280;5280;42.600;23.556;2023-07-29T08:59:12;93241.63;;;29.54;30.91
10466;BME280;5280;42.600;23.556;2023-07-29T09:01:39;93289.34;;;29.91;31.65
10466;BME280;5280;42.600;23.556;2023-07-29T09:04:09;93299.50;;;30.08;32.14
10466;BME280;5280;42.600;23.556;2023-07-29T09:06:36;93296.03;;;30.12;30.52
10466;BME280;5280;42.600;23.556;2023-07-29T09:09:04;93299.31;;;30.26;31.29
10466;BME280;5280;42.600;23.556;2023-07-29T09:11:34;93298.19;;;30.39;31.70
10466;BME280;5280;42.600;23.556;2023-07-29T09:14:01;93292.00;;;30.43;30.32
10466;BME280;5280;42.600;23.556;2023-07-29T09:16:28;93267.47;;;30.43;29.88
10466;BME280;5280;42.600;23.556;2023-07-29T09:19:01;93281.88;;;30.55;29.92
10466;BME280;5280;42.600;23.556;2023-07-29T09:21:29;93238.28;;;30.44;30.13
10466;BME280;5280;42.600;23.556;2023-07-29T09:23:56;93290.47;;;30.64;30.14
10466;BME280;5280;42.600;23.556;2023-07-29T09:26:24;93291.13;;;30.54;31.96
10466;BME280;5280;42.600;23.556;2023-07-29T09:28:52;93264.69;;;30.55;30.04
10466;BME280;5280;42.600;23.556;2023-07-29T09:31:21;93273.50;;;30.73;29.07
10466;BME280;5280;42.600;23.556;2023-07-29T09:33:48;93248.00;;;30.68;29.32
10466;BME280;5280;42.600;23.556;2023-07-29T09:36:16;93284.91;;;31.04;28.74
10466;BME280;5280;42.600;23.556;2023-07-29T09:38:45;93265.13;;;31.13;28.15
10466;BME280;5280;42.600;23.556;2023-07-29T09:41:12;93273.16;;;31.20;28.79
10466;BME280;5280;42.600;23.556;2023-07-29T09:43:40;93259.13;;;31.11;29.85
10466;BME280;5280;42.600;23.556;2023-07-29T09:46:07;93230.63;;;30.91;28.81
10466;BME280;5280;42.600;23.556;2023-07-29T09:48:34;93259.59;;;31.25;28.63
10466;BME280;5280;42.600;23.556;2023-07-29T09:51:09;93243.13;;;31.20;29.36
10466;BME280;5280;42.600;23.556;2023-07-29T09:53:40;93269.81;;;31.51;28.95
10466;BME280;5280;42.600;23.556;2023-07-29T09:56:09;93183.66;;;31.05;29.56
10466;BME280;5280;42.600;23.556;2023-07-29T09:58:36;93228.19;;;31.44;28.21
10466;BME280;5280;42.600;23.556;2023-07-29T10:01:03;93264.53;;;31.45;28.77
10466;BME280;5280;42.600;23.556;2023-07-29T10:03:31;93277.44;;;31.66;27.70
10466;BME280;5280;42.600;23.556;2023-07-29T10:06:00;93251.63;;;31.79;27.36
10466;BME280;5280;42.600;23.556;2023-07-29T10:08:29;93244.91;;;31.86;26.88
10466;BME280;5280;42.600;23.556;2023-07-29T10:10:58;93254.31;;;31.95;27.10
10466;BME280;5280;42.600;23.556;2023-07-29T10:13:27;93187.03;;;31.51;26.89
10466;BME280;5280;42.600;23.556;2023-07-29T10:15:54;93254.13;;;32.02;27.53
10466;BME280;5280;42.600;23.556;2023-07-29T10:18:22;93260.88;;;32.16;27.09
10466;BME280;5280;42.600;23.556;2023-07-29T10:20:51;93242.28;;;32.18;26.75
10466;BME280;5280;42.600;23.556;2023-07-29T10:23:18;93200.97;;;31.93;27.08
10466;BME280;5280;42.600;23.556;2023-07-29T10:25:52;93228.22;;;32.10;25.97
10466;BME280;5280;42.600;23.556;2023-07-29T10:28:36;93236.66;;;32.08;26.15
10466;BME280;5280;42.600;23.556;2023-07-29T10:31:04;93236.13;;;32.06;27.16
10466;BME280;5280;42.600;23.556;2023-07-29T10:33:32;93190.28;;;31.91;26.54
10466;BME280;5280;42.600;23.556;2023-07-29T10:36:01;93202.22;;;32.07;25.60
10466;BME280;5280;42.600;23.556;2023-07-29T10:38:29;93227.03;;;32.22;25.80
10466;BME280;5280;42.600;23.556;2023-07-29T10:40:57;93223.78;;;32.25;26.15
10466;BME280;5280;42.600;23.556;2023-07-29T10:43:31;93177.22;;;31.98;25.44
10466;BME280;5280;42.600;23.556;2023-07-29T10:46:14;93201.91;;;32.25;26.49
10466;BME280;5280;42.600;23.556;2023-07-29T10:48:42;93213.47;;;32.32;26.08
10466;BME280;5280;42.600;23.556;2023-07-29T10:51:28;93206.09;;;32.33;25.37
10466;BME280;5280;42.600;23.556;2023-07-29T10:54:00;93179.25;;;32.08;26.07
10466;BME280;5280;42.600;23.556;2023-07-29T10:56:29;93153.03;;;31.85;25.99
10466;BME280;5280;42.600;23.556;2023-07-29T10:58:59;93199.38;;;31.97;25.40
10466;BME280;5280;42.600;23.556;2023-07-29T11:01:30;93187.38;;;31.98;25.37
10466;BME280;5280;42.600;23.556;2023-07-29T11:04:26;93199.31;;;31.92;25.86
10466;BME280;5280;42.600;23.556;2023-07-29T11:07:22;93199.88;;;31.94;26.27
10466;BME280;5280;42.600;23.556;2023-07-29T11:09:59;93195.50;;;31.93;26.47
10466;BME280;5280;42.600;23.556;2023-07-29T11:12:39;93138.97;;;31.55;26.33
10466;BME280;5280;42.600;23.556;2023-07-29T11:15:19;93194.03;;;31.85;25.61
10466;BME280;5280;42.600;23.556;2023-07-29T11:17:49;93195.88;;;31.80;25.65
10466;BME280;5280;42.600;23.556;2023-07-29T11:20:17;93187.44;;;31.81;26.35
10466;BME280;5280;42.600;23.556;2023-07-29T11:22:44;93184.47;;;31.83;26.62
10466;BME280;5280;42.600;23.556;2023-07-29T11:25:15;93179.00;;;31.61;25.52
10466;BME280;5280;42.600;23.556;2023-07-29T11:27:42;93170.19;;;31.37;26.15
10466;BME280;5280;42.600;23.556;2023-07-29T11:30:11;93182.19;;;31.36;26.53
10466;BME280;5280;42.600;23.556;2023-07-29T11:32:41;93146.66;;;31.14;27.23
10466;BME280;5280;42.600;23.556;2023-07-29T11:35:09;93178.44;;;31.42;27.49
10466;BME280;5280;42.600;23.556;2023-07-29T11:37:38;93178.38;;;31.37;27.24
10466;BME280;5280;42.600;23.556;2023-07-29T11:40:06;93170.25;;;31.42;27.27
10466;BME280;5280;42.600;23.556;2023-07-29T11:42:36;93144.81;;;31.20;27.51
10466;BME280;5280;42.600;23.556;2023-07-29T11:45:07;93137.06;;;31.12;27.43
10466;BME280;5280;42.600;23.556;2023-07-29T11:47:35;93170.25;;;31.42;27.84
10466;BME280;5280;42.600;23.556;2023-07-29T11:50:05;93175.84;;;31.52;27.92
10466;BME280;5280;42.600;23.556;2023-07-29T11:52:33;93113.63;;;31.16;27.40
10466;BME280;5280;42.600;23.556;2023-07-29T11:55:00;93150.31;;;31.42;26.01
10466;BME280;5280;42.600;23.556;2023-07-29T11:57:31;93124.63;;;31.21;27.23
10466;BME280;5280;42.600;23.556;2023-07-29T11:59:58;93133.66;;;31.22;27.01
10466;BME280;5280;42.600;23.556;2023-07-29T12:02:25;93158.69;;;31.35;27.86
10466;BME280;5280;42.600;23.556;2023-07-29T12:04:52;93149.41;;;31.36;27.02
10466;BME280;5280;42.600;23.556;2023-07-29T12:07:21;93129.09;;;31.27;27.46
10466;BME280;5280;42.600;23.556;2023-07-29T12:09:49;93146.22;;;31.44;27.43
10466;BME280;5280;42.600;23.556;2023-07-29T12:12:17;93145.78;;;31.52;28.48
10466;BME280;5280;42.600;23.556;2023-07-29T12:14:44;93144.91;;;31.69;28.32
10466;BME280;5280;42.600;23.556;2023-07-29T12:17:13;93127.13;;;31.66;27.86
10466;BME280;5280;42.600;23.556;2023-07-29T12:19:40;93144.53;;;31.82;26.37
10466;BME280;5280;42.600;23.556;2023-07-29T12:22:09;93124.97;;;31.68;26.80
10466;BME280;5280;42.600;23.556;2023-07-29T12:24:41;93140.72;;;31.83;27.30
10466;BME280;5280;42.600;23.556;2023-07-29T12:27:10;93140.06;;;31.76;27.58
10466;BME280;5280;42.600;23.556;2023-07-29T12:29:40;93140.66;;;31.78;26.29
10466;BME280;5280;42.600;23.556;2023-07-29T12:32:07;93112.47;;;31.55;27.15
10466;BME280;5280;42.600;23.556;2023-07-29T12:34:35;93139.31;;;31.80;26.82
10466;BME280;5280;42.600;23.556;2023-07-29T12:37:04;93126.66;;;31.74;26.52
10466;BME280;5280;42.600;23.556;2023-07-29T12:39:33;93128.63;;;31.79;26.97
10466;BME280;5280;42.600;23.556;2023-07-29T12:42:03;93117.22;;;31.60;27.07
10466;BME280;5280;42.600;23.556;2023-07-29T12:44:31;93125.03;;;31.73;27.57
10466;BME280;5280;42.600;23.556;2023-07-29T12:47:00;93099.78;;;31.66;25.89
10466;BME280;5280;42.600;23.556;2023-07-29T12:49:28;93142.91;;;31.86;26.92
10466;BME280;5280;42.600;23.556;2023-07-29T12:51:55;93139.59;;;31.84;27.50
10466;BME280;5280;42.600;23.556;2023-07-29T12:54:22;93117.78;;;31.62;28.06
10466;BME280;5280;42.600;23.556;2023-07-29T12:56:49;93119.16;;;31.65;27.72
10466;BME280;5280;42.600;23.556;2023-07-29T12:59:18;93060.75;;;31.22;27.64
10466;BME280;5280;42.600;23.556;2023-07-29T13:01:44;93121.28;;;31.57;27.68
10466;BME280;5280;42.600;23.556;2023-07-29T13:04:12;93121.50;;;31.56;28.27
10466;BME280;5280;42.600;23.556;2023-07-29T13:06:39;93113.84;;;31.53;29.21
10466;BME280;5280;42.600;23.556;2023-07-29T13:09:06;93126.28;;;31.66;27.96
10466;BME280;5280;42.600;23.556;2023-07-29T13:11:33;93103.84;;;31.20;27.31
10466;BME280;5280;42.600;23.556;2023-07-29T13:14:00;93144.56;;;31.43;27.41